Time;durP1;ratioP1;P1;durP2;ratioP2;P2;SDS_P1;SDS_P2;PMS_P1;PMS_P2;Temp;Humidity;BMP_temperature;BMP_pressure;BME280_temperature;BME280_humidity;BME280_pressure;Samples;Min_cycle;Max_cycle;Signal;HPM_P1;HPM_P2
2024/04/01 00:00:30;;;;;;;0.13;0.10;;;12.60;99.30;;;;;;4247041;27;20047;-52
2024/04/01 00:02:31;;;;;;;0.10;0.10;;;12.60;99.60;;;;;;4247066;27;20051;-54
2024/04/01 00:04:32;;;;;;;0.10;0.10;;;12.60;99.80;;;;;;4247599;27;20092;-54
2024/04/01 00:06:34;;;;;;;0.15;0.15;;;12.60;99.00;;;;;;4246588;27;20048;-54
2024/04/01 00:08:35;;;;;;;0.13;0.13;;;12.60;98.90;;;;;;4247304;27;20042;-54
2024/04/01 00:10:38;;;;;;;0.22;0.20;;;12.60;98.60;;;;;;4247438;27;20039;-54
2024/04/01 00:12:41;;;;;;;0.30;0.30;;;12.60;98.70;;;;;;4247460;27;20051;-54
2024/04/01 00:14:42;;;;;;;0.20;0.10;;;12.50;98.90;;;;;;4230602;28;20051;-54
2024/04/01 00:16:43;;;;;;;0.43;0.22;;;12.50;99.50;;;;;;4247444;27;20047;-53
2024/04/01 00:18:46;;;;;;;0.20;0.20;;;12.50;99.90;;;;;;4247363;27;20047;-55
2024/04/01 00:20:56;;;;;;;0.40;0.40;;;12.50;99.90;;;;;;4246413;27;20050;-54
2024/04/01 00:22:58;;;;;;;0.40;0.30;;;12.50;99.70;;;;;;4229604;28;20048;-53
2024/04/01 00:24:59;;;;;;;0.13;0.10;;;12.40;99.20;;;;;;4229447;28;20051;-53
2024/04/01 00:27:01;;;;;;;0.20;0.20;;;12.40;99.30;;;;;;4246957;27;20500;-53
2024/04/01 00:29:04;;;;;;;1.00;0.10;;;12.40;99.00;;;;;;4246892;27;20511;-57
2024/04/01 00:31:05;;;;;;;0.60;0.20;;;12.50;99.90;;;;;;4247439;27;20047;-51
2024/04/01 00:33:09;;;;;;;0.32;0.10;;;12.50;99.80;;;;;;4246929;27;20064;-52
2024/04/01 00:35:11;;;;;;;0.63;0.30;;;12.40;99.90;;;;;;4247693;27;20065;-53
2024/04/01 00:37:13;;;;;;;2.30;0.35;;;12.40;99.70;;;;;;4247290;27;20452;-65
2024/04/01 00:39:14;;;;;;;0.40;0.10;;;12.40;99.50;;;;;;4247155;27;20051;-53
2024/04/01 00:41:15;;;;;;;0.20;0.17;;;12.30;99.20;;;;;;4246768;28;20057;-53
2024/04/01 00:43:17;;;;;;;0.80;0.20;;;12.40;99.40;;;;;;4246778;28;20188;-53
2024/04/01 00:45:22;;;;;;;0.20;0.10;;;12.40;99.70;;;;;;4246596;28;20049;-53
2024/04/01 00:47:23;;;;;;;0.25;0.25;;;12.40;99.50;;;;;;4246610;28;20043;-58
2024/04/01 00:49:25;;;;;;;0.05;0.05;;;12.40;99.50;;;;;;4246146;28;20446;-55
2024/04/01 00:51:27;;;;;;;0.77;0.32;;;12.50;99.40;;;;;;4246552;28;20418;-53
2024/04/01 00:53:28;;;;;;;0.60;0.60;;;12.50;99.30;;;;;;4229767;28;20066;-53
2024/04/01 00:55:31;;;;;;;0.20;0.20;;;12.50;99.60;;;;;;4247017;28;20051;-58
2024/04/01 00:57:33;;;;;;;0.75;0.50;;;12.50;99.70;;;;;;4264318;27;20039;-53
2024/04/01 00:59:36;;;;;;;0.17;0.13;;;12.50;99.60;;;;;;4247013;28;20058;-53
2024/04/01 01:01:39;;;;;;;0.60;0.40;;;12.50;99.20;;;;;;4247176;28;20044;-61
2024/04/01 01:03:41;;;;;;;0.28;0.10;;;12.60;99.40;;;;;;4246286;28;20051;-53
2024/04/01 01:05:43;;;;;;;0.40;0.10;;;12.60;98.60;;;;;;4246729;28;20043;-51
2024/04/01 01:07:45;;;;;;;0.20;0.20;;;12.60;98.80;;;;;;4246948;28;20043;-54
2024/04/01 01:09:47;;;;;;;0.08;0.08;;;12.70;98.70;;;;;;4246935;28;20502;-55
2024/04/01 01:11:49;;;;;;;0.10;0.10;;;12.70;98.60;;;;;;4246983;28;20047;-53
2024/04/01 01:13:50;;;;;;;0.68;0.20;;;12.70;99.00;;;;;;4229591;28;20047;-53
2024/04/01 01:15:52;;;;;;;0.10;0.10;;;12.70;99.00;;;;;;4246691;28;20052;-54
2024/04/01 01:17:55;;;;;;;0.70;0.17;;;12.80;98.90;;;;;;4247111;28;20053;-54
2024/04/01 01:19:56;;;;;;;0.43;0.10;;;12.70;98.80;;;;;;4246348;28;20046;-53
2024/04/01 01:22:03;;;;;;;0.17;0.10;;;12.60;99.40;;;;;;4246020;28;20050;-52
2024/04/01 01:24:06;;;;;;;0.38;0.30;;;12.60;99.80;;;;;;4246164;28;20415;-52
2024/04/01 01:26:08;;;;;;;0.10;0.10;;;12.60;99.20;;;;;;4246238;28;20416;-53
2024/04/01 01:28:09;;;;;;;0.03;0.03;;;12.60;98.80;;;;;;4229279;28;20054;-53
2024/04/01 01:30:16;;;;;;;0.20;0.20;;;12.60;99.30;;;;;;4246012;28;20508;-55
2024/04/01 01:32:18;;;;;;;0.13;0.10;;;12.50;99.20;;;;;;4246318;28;20047;-53
2024/04/01 01:34:19;;;;;;;0.45;0.35;;;12.50;99.30;;;;;;4246975;28;20047;-53
2024/04/01 01:36:21;;;;;;;0.65;0.65;;;12.50;99.00;;;;;;4247330;27;20519;-53
2024/04/01 01:38:23;;;;;;;0.82;0.10;;;12.50;99.30;;;;;;4233375;28;20074;-60
2024/04/01 01:40:25;;;;;;;0.30;0.20;;;12.50;99.90;;;;;;4250658;27;20047;-56
2024/04/01 01:42:27;;;;;;;0.08;0.08;;;12.40;99.90;;;;;;4249916;27;20056;-53
2024/04/01 01:44:28;;;;;;;0.20;0.20;;;12.50;99.70;;;;;;4249427;27;20439;-58
2024/04/01 01:46:32;;;;;;;0.63;0.45;;;12.50;99.50;;;;;;4249419;27;20049;-53
2024/04/01 01:48:34;;;;;;;1.08;0.20;;;12.50;99.40;;;;;;4249607;27;20043;-53
2024/04/01 01:50:35;;;;;;;0.52;0.20;;;12.60;99.40;;;;;;4251021;27;20043;-58
2024/04/01 01:52:37;;;;;;;0.52;0.28;;;12.50;98.90;;;;;;4249926;27;20049;-53
2024/04/01 01:54:38;;;;;;;0.13;0.13;;;12.50;99.00;;;;;;4250022;27;20154;-54
2024/04/01 01:56:41;;;;;;;0.10;0.10;;;12.60;99.00;;;;;;4250175;27;20043;-53
2024/04/01 01:58:42;;;;;;;0.17;0.17;;;12.60;99.70;;;;;;4249793;27;20047;-53
2024/04/01 02:00:43;;;;;;;0.75;0.43;;;12.70;99.30;;;;;;4233538;28;20515;-54
2024/04/01 02:02:45;;;;;;;0.17;0.10;;;12.60;98.20;;;;;;4249518;27;20055;-54
2024/04/01 02:04:46;;;;;;;2.15;0.20;;;12.60;98.50;;;;;;4249922;27;20054;-54
2024/04/01 02:06:48;;;;;;;1.10;0.10;;;12.60;98.50;;;;;;4249580;27;20049;-54
2024/04/01 02:08:49;;;;;;;0.10;0.10;;;12.60;98.70;;;;;;4249612;27;20057;-54
2024/04/01 02:10:56;;;;;;;0.47;0.10;;;12.60;98.80;;;;;;4249138;27;20069;-53
2024/04/01 02:12:58;;;;;;;0.00;0.00;;;12.60;98.90;;;;;;4248970;27;20051;-58
2024/04/01 02:15:02;;;;;;;0.20;0.10;;;12.60;98.30;;;;;;4248918;27;20051;-54
2024/04/01 02:17:04;;;;;;;1.35;0.35;;;12.70;98.20;;;;;;4248613;27;20043;-55
2024/04/01 02:19:05;;;;;;;0.10;0.10;;;12.60;98.20;;;;;;4249118;27;20049;-57
2024/04/01 02:21:06;;;;;;;0.00;0.00;;;12.50;98.40;;;;;;4244088;27;20105;-54
2024/04/01 02:23:08;;;;;;;0.40;0.10;;;12.40;98.40;;;;;;4232430;28;20070;-53
2024/04/01 02:25:11;;;;;;;0.20;0.10;;;12.50;98.60;;;;;;4231810;28;20044;-53
2024/04/01 02:27:13;;;;;;;0.35;0.10;;;12.40;98.80;;;;;;4231706;28;20054;-54
2024/04/01 02:29:16;;;;;;;0.20;0.20;;;12.50;99.20;;;;;;4232126;28;20043;-55
2024/04/01 02:31:17;;;;;;;0.38;0.10;;;12.40;98.70;;;;;;4232110;28;20047;-60
2024/04/01 02:33:19;;;;;;;0.10;0.10;;;12.50;98.80;;;;;;4231603;28;20047;-54
2024/04/01 02:35:20;;;;;;;0.35;0.17;;;12.40;98.50;;;;;;4231291;28;20047;-54
2024/04/01 02:37:21;;;;;;;0.10;0.10;;;12.40;98.70;;;;;;4214542;28;20058;-54
2024/04/01 02:39:23;;;;;;;0.10;0.10;;;12.40;98.60;;;;;;4231563;28;20511;-53
2024/04/01 02:41:24;;;;;;;0.80;0.43;;;12.40;98.70;;;;;;4231221;28;20419;-53
2024/04/01 02:43:26;;;;;;;0.17;0.17;;;12.40;98.70;;;;;;4231499;28;20070;-53
2024/04/01 02:45:31;;;;;;;0.03;0.03;;;12.40;99.10;;;;;;4231430;28;20044;-54
2024/04/01 02:47:32;;;;;;;0.10;0.10;;;12.40;98.70;;;;;;4231379;28;20473;-56
2024/04/01 02:49:33;;;;;;;0.47;0.25;;;12.40;98.20;;;;;;4230395;28;20044;-53
2024/04/01 02:51:35;;;;;;;0.05;0.03;;;12.40;98.30;;;;;;4231148;28;20046;-52
2024/04/01 02:53:36;;;;;;;0.00;0.00;;;12.40;99.00;;;;;;4231039;28;20058;-53
2024/04/01 02:55:37;;;;;;;0.00;0.00;;;12.30;97.70;;;;;;4230841;28;20050;-53
2024/04/01 02:57:39;;;;;;;0.10;0.08;;;12.20;97.50;;;;;;4230886;28;20059;-52
2024/04/01 02:59:40;;;;;;;0.15;0.10;;;12.20;98.10;;;;;;4230855;28;20061;-56
2024/04/01 03:01:43;;;;;;;0.10;0.10;;;12.20;97.90;;;;;;4231076;28;20051;-54
2024/04/01 03:03:47;;;;;;;0.10;0.10;;;12.20;98.30;;;;;;4231431;28;20070;-52
2024/04/01 03:05:49;;;;;;;0.20;0.10;;;12.20;98.10;;;;;;4231538;28;20050;-54
2024/04/01 03:07:51;;;;;;;1.20;0.22;;;12.20;98.30;;;;;;4231726;28;20469;-53
2024/04/01 03:09:54;;;;;;;0.63;0.35;;;12.20;98.20;;;;;;4231306;28;20048;-53
2024/04/01 03:11:56;;;;;;;0.52;0.10;;;12.10;98.30;;;;;;4231089;28;20044;-54
2024/04/01 03:13:57;;;;;;;0.20;0.20;;;12.20;98.60;;;;;;4214627;28;20517;-56
2024/04/01 03:15:58;;;;;;;0.30;0.10;;;12.10;98.30;;;;;;4232669;28;20042;-53
2024/04/01 03:18:01;;;;;;;0.03;0.03;;;12.10;98.50;;;;;;4231214;28;20403;-53
2024/04/01 03:20:06;;;;;;;0.20;0.15;;;12.10;98.30;;;;;;4231135;28;20097;-55
2024/04/01 03:22:08;;;;;;;0.10;0.10;;;12.00;98.30;;;;;;4230688;28;20047;-53
2024/04/01 03:24:09;;;;;;;0.20;0.10;;;12.10;98.90;;;;;;4231100;28;20417;-54
2024/04/01 03:26:10;;;;;;;2.45;0.20;;;12.00;98.80;;;;;;4230592;28;20047;-53
2024/04/01 03:28:12;;;;;;;0.30;0.10;;;12.00;98.40;;;;;;4230763;28;20071;-54
2024/04/01 03:30:13;;;;;;;0.30;0.10;;;11.90;98.40;;;;;;4230210;28;20052;-53
2024/04/01 03:32:16;;;;;;;0.10;0.10;;;11.80;98.10;;;;;;4230607;28;20455;-53
2024/04/01 03:34:19;;;;;;;0.25;0.20;;;11.80;98.30;;;;;;4230590;28;20052;-54
2024/04/01 03:36:21;;;;;;;0.10;0.10;;;11.80;98.50;;;;;;4230981;28;20052;-57
2024/04/01 03:38:22;;;;;;;0.45;0.20;;;11.80;98.20;;;;;;4230612;28;20065;-54
2024/04/01 03:40:24;;;;;;;0.77;0.20;;;11.80;98.50;;;;;;4230303;28;20051;-63
2024/04/01 03:42:25;;;;;;;0.82;0.10;;;11.70;98.40;;;;;;4230509;28;20054;-54
2024/04/01 03:44:26;;;;;;;0.10;0.10;;;11.70;98.60;;;;;;4229965;28;20407;-53
2024/04/01 03:46:28;;;;;;;0.05;0.05;;;11.70;98.70;;;;;;4230015;28;20040;-54
2024/04/01 03:48:34;;;;;;;0.10;0.10;;;11.60;98.80;;;;;;4230417;28;20083;-52
2024/04/01 03:50:42;;;;;;;1.27;0.20;;;11.60;98.60;;;;;;4230682;28;20055;-56
2024/04/01 03:52:43;;;;;;;0.08;0.08;;;11.70;98.90;;;;;;4230339;28;20047;-53
2024/04/01 03:54:45;;;;;;;0.15;0.13;;;11.60;98.30;;;;;;4230021;28;20048;-53
2024/04/01 03:56:47;;;;;;;0.20;0.10;;;11.50;98.10;;;;;;4229986;28;20059;-61
2024/04/01 03:58:48;;;;;;;0.13;0.05;;;11.50;98.50;;;;;;4229941;28;20053;-54
2024/04/01 04:00:50;;;;;;;0.30;0.10;;;11.50;98.50;;;;;;4234024;28;20554;-53
2024/04/01 04:02:53;;;;;;;0.40;0.40;;;11.50;98.80;;;;;;4229754;28;20432;-53
2024/04/01 04:04:54;;;;;;;0.30;0.28;;;11.50;98.90;;;;;;4229866;28;20040;-55
2024/04/01 04:06:57;;;;;;;0.22;0.17;;;11.60;99.00;;;;;;4230076;28;20043;-56
2024/04/01 04:08:59;;;;;;;0.20;0.10;;;11.50;98.40;;;;;;4230222;28;20044;-54
2024/04/01 04:11:06;;;;;;;0.35;0.10;;;11.40;98.40;;;;;;4229870;28;20065;-53
2024/04/01 04:13:08;;;;;;;0.20;0.20;;;11.30;98.80;;;;;;4212829;28;20040;-54
2024/04/01 04:15:09;;;;;;;0.93;0.25;;;11.40;99.10;;;;;;4212768;28;20058;-54
2024/04/01 04:17:11;;;;;;;0.00;0.00;;;11.30;99.00;;;;;;4229741;28;20089;-53
2024/04/01 04:19:14;;;;;;;0.52;0.10;;;11.40;99.20;;;;;;4229550;28;20043;-55
2024/04/01 04:21:15;;;;;;;0.35;0.17;;;11.40;99.40;;;;;;4229366;28;20448;-53
2024/04/01 04:23:18;;;;;;;0.35;0.22;;;11.50;98.90;;;;;;4229332;28;20050;-53
2024/04/01 04:25:19;;;;;;;0.13;0.05;;;11.40;98.60;;;;;;4229355;28;20040;-53
2024/04/01 04:27:20;;;;;;;0.10;0.10;;;11.30;98.50;;;;;;4229183;28;20039;-53
2024/04/01 04:29:22;;;;;;;0.22;0.15;;;11.40;98.80;;;;;;4229480;28;20047;-53
2024/04/01 04:31:23;;;;;;;0.10;0.10;;;11.30;98.50;;;;;;4229557;28;20039;-55
2024/04/01 04:33:25;;;;;;;0.35;0.10;;;11.30;99.00;;;;;;4229688;28;20415;-54
2024/04/01 04:35:26;;;;;;;0.10;0.10;;;11.40;98.90;;;;;;4229805;28;20047;-54
2024/04/01 04:37:27;;;;;;;0.13;0.10;;;11.30;98.50;;;;;;4229909;28;20495;-53
2024/04/01 04:39:33;;;;;;;0.20;0.20;;;11.30;99.00;;;;;;4229825;28;20058;-54
2024/04/01 04:41:35;;;;;;;0.10;0.10;;;11.40;99.20;;;;;;4229598;28;20043;-57
2024/04/01 04:43:36;;;;;;;0.10;0.10;;;11.40;98.70;;;;;;4229607;28;20062;-54
2024/04/01 04:45:47;;;;;;;1.98;1.48;;;11.40;99.30;;;;;;4212370;28;20114;-53
2024/04/01 04:47:49;;;;;;;1.35;0.30;;;11.40;98.70;;;;;;4229463;28;20062;-54
2024/04/01 04:49:51;;;;;;;0.57;0.10;;;11.40;99.20;;;;;;4229494;28;20044;-53
2024/04/01 04:51:52;;;;;;;0.45;0.10;;;11.40;99.00;;;;;;4229714;28;20499;-53
2024/04/01 04:53:53;;;;;;;2.00;0.20;;;11.50;99.10;;;;;;4229452;28;20051;-53
2024/04/01 04:55:56;;;;;;;0.50;0.50;;;11.40;98.90;;;;;;4229625;28;20040;-55
2024/04/01 04:57:57;;;;;;;0.28;0.13;;;11.40;98.70;;;;;;4230663;28;20048;-55
2024/04/01 04:59:59;;;;;;;1.25;0.60;;;11.30;98.90;;;;;;4229574;28;20504;-54
2024/04/01 05:02:06;;;;;;;0.17;0.10;;;11.30;99.10;;;;;;4229464;28;20058;-54
2024/04/01 05:04:08;;;;;;;0.10;0.10;;;11.40;99.40;;;;;;4229535;28;20044;-53
2024/04/01 05:06:10;;;;;;;0.10;0.10;;;11.40;99.30;;;;;;4230204;28;20043;-55
2024/04/01 05:08:11;;;;;;;0.10;0.10;;;11.40;98.90;;;;;;4212904;28;20044;-54
2024/04/01 05:10:13;;;;;;;0.10;0.10;;;11.40;99.40;;;;;;4229320;28;20464;-55
2024/04/01 05:12:16;;;;;;;0.20;0.20;;;11.40;99.30;;;;;;4231370;28;20047;-54
2024/04/01 05:14:17;;;;;;;0.63;0.20;;;11.30;99.20;;;;;;4233323;28;20516;-53
2024/04/01 05:16:18;;;;;;;0.45;0.40;;;11.30;99.10;;;;;;4233217;28;20505;-53
2024/04/01 05:18:20;;;;;;;0.10;0.10;;;11.40;99.40;;;;;;4232884;28;20052;-53
2024/04/01 05:20:21;;;;;;;0.28;0.10;;;11.30;99.20;;;;;;4233036;28;20069;-59
2024/04/01 05:22:23;;;;;;;0.20;0.10;;;11.30;99.00;;;;;;4232559;28;20493;-58
2024/04/01 05:24:24;;;;;;;0.10;0.10;;;11.30;99.10;;;;;;4233049;28;20043;-54
2024/04/01 05:26:25;;;;;;;0.20;0.08;;;11.30;99.30;;;;;;4232377;28;20052;-61
2024/04/01 05:28:28;;;;;;;0.38;0.20;;;11.30;99.40;;;;;;4232584;28;20048;-55
2024/04/01 05:30:30;;;;;;;0.90;0.10;;;11.30;99.60;;;;;;4232439;28;20058;-53
2024/04/01 05:32:32;;;;;;;0.30;0.17;;;11.30;99.30;;;;;;4232183;28;20048;-53
2024/04/01 05:34:37;;;;;;;0.20;0.10;;;11.30;99.60;;;;;;4232122;28;20424;-53
2024/04/01 05:36:38;;;;;;;0.25;0.10;;;11.30;99.70;;;;;;4232173;28;20436;-55
2024/04/01 05:38:40;;;;;;;1.02;0.20;;;11.30;99.90;;;;;;4232131;28;20485;-57
2024/04/01 05:40:42;;;;;;;2.00;0.73;;;11.30;99.40;;;;;;4232170;28;20052;-57
2024/04/01 05:42:43;;;;;;;0.40;0.20;;;11.20;99.20;;;;;;4232515;28;20048;-53
2024/04/01 05:44:46;;;;;;;7.78;0.68;;;11.30;99.40;;;;;;4232482;28;20043;-52
2024/04/01 05:46:48;;;;;;;0.70;0.20;;;11.30;99.70;;;;;;4232356;28;20503;-54
2024/04/01 05:48:49;;;;;;;3.05;1.10;;;11.30;99.60;;;;;;4232535;28;20047;-55
2024/04/01 05:50:52;;;;;;;0.00;0.00;;;11.20;99.20;;;;;;4232174;28;20489;-54
2024/04/01 05:52:53;;;;;;;0.32;0.20;;;11.20;99.20;;;;;;4232106;28;20432;-53
2024/04/01 05:54:54;;;;;;;0.45;0.45;;;11.20;99.00;;;;;;4232161;28;20039;-57
2024/04/01 05:56:56;;;;;;;0.80;0.13;;;11.10;99.20;;;;;;4232155;28;20040;-52
2024/04/01 05:58:57;;;;;;;0.40;0.35;;;11.20;99.40;;;;;;4231625;28;20051;-53
2024/04/01 06:01:01;;;;;;;0.20;0.20;;;11.10;99.20;;;;;;4232001;28;20376;-60
2024/04/01 06:03:02;;;;;;;3.13;0.70;;;11.10;99.30;;;;;;4231719;28;20055;-53
2024/04/01 06:05:04;;;;;;;0.35;0.10;;;11.10;99.60;;;;;;4215072;28;20401;-57
2024/04/01 06:07:06;;;;;;;1.45;0.10;;;11.10;99.30;;;;;;4231727;28;20043;-54
2024/04/01 06:09:07;;;;;;;1.55;0.20;;;11.20;99.30;;;;;;4231540;28;20054;-54
2024/04/01 06:11:09;;;;;;;0.70;0.25;;;11.20;99.10;;;;;;4231884;28;20495;-59
2024/04/01 06:13:10;;;;;;;1.27;0.20;;;11.20;99.50;;;;;;4231860;28;20052;-54
2024/04/01 06:15:11;;;;;;;0.45;0.10;;;11.20;99.40;;;;;;4231861;28;20048;-53
2024/04/01 06:17:14;;;;;;;0.10;0.10;;;11.30;99.20;;;;;;4231666;28;20048;-53
2024/04/01 06:19:17;;;;;;;0.10;0.00;;;11.40;99.00;;;;;;4231702;28;20050;-53
2024/04/01 06:21:18;;;;;;;0.20;0.17;;;11.40;99.00;;;;;;4231646;28;20048;-53
2024/04/01 06:23:21;;;;;;;0.10;0.10;;;11.40;98.70;;;;;;4230179;28;20066;-53
2024/04/01 06:25:22;;;;;;;1.65;0.50;;;11.40;98.70;;;;;;4231708;28;20039;-53
2024/04/01 06:27:24;;;;;;;3.63;0.52;;;11.40;98.70;;;;;;4231984;28;20047;-54
2024/04/01 06:29:25;;;;;;;0.00;0.00;;;11.40;98.80;;;;;;4214634;28;20432;-53
2024/04/01 06:31:26;;;;;;;0.30;0.30;;;11.30;98.70;;;;;;4231298;28;20058;-53
2024/04/01 06:33:29;;;;;;;2.67;1.00;;;11.30;98.60;;;;;;4231554;28;20052;-53
2024/04/01 06:35:30;;;;;;;0.13;0.10;;;11.30;98.80;;;;;;4214545;28;20058;-53
2024/04/01 06:37:32;;;;;;;0.20;0.15;;;11.30;99.00;;;;;;4230766;28;20062;-52
2024/04/01 06:39:33;;;;;;;0.45;0.20;;;11.40;99.20;;;;;;4231121;28;20056;-53
2024/04/01 06:41:35;;;;;;;0.30;0.10;;;11.40;98.60;;;;;;4231962;28;20044;-53
2024/04/01 06:43:36;;;;;;;1.75;1.33;;;11.40;98.50;;;;;;4231707;28;20054;-53
2024/04/01 06:45:38;;;;;;;0.13;0.13;;;11.30;98.50;;;;;;4231428;28;20055;-57
2024/04/01 06:47:39;;;;;;;0.52;0.28;;;11.30;98.70;;;;;;4231546;28;20047;-57
2024/04/01 06:49:42;;;;;;;0.10;0.08;;;11.30;98.50;;;;;;4231583;28;20052;-52
2024/04/01 06:51:43;;;;;;;1.20;0.57;;;11.30;98.70;;;;;;4231461;28;20047;-55
2024/04/01 06:53:45;;;;;;;0.10;0.10;;;11.30;98.40;;;;;;4231797;28;20044;-54
2024/04/01 06:55:47;;;;;;;0.90;0.45;;;11.10;98.80;;;;;;4231254;28;20408;-53
2024/04/01 06:57:48;;;;;;;0.40;0.30;;;11.20;98.70;;;;;;4230996;28;20101;-53
2024/04/01 06:59:49;;;;;;;0.10;0.10;;;11.10;98.90;;;;;;4230999;28;20044;-53
2024/04/01 07:01:51;;;;;;;0.57;0.47;;;11.10;98.70;;;;;;4231409;28;20054;-53
2024/04/01 07:03:52;;;;;;;0.50;0.10;;;11.00;98.80;;;;;;4231024;28;20044;-52
2024/04/01 07:05:55;;;;;;;0.47;0.10;;;11.00;98.80;;;;;;4230771;28;20048;-56
2024/04/01 07:07:57;;;;;;;0.63;0.10;;;11.00;99.20;;;;;;4230370;28;20396;-54
2024/04/01 07:09:58;;;;;;;0.22;0.10;;;11.00;98.80;;;;;;4231114;28;20044;-54
2024/04/01 07:12:00;;;;;;;0.25;0.20;;;11.00;99.00;;;;;;4231171;28;20527;-57
2024/04/01 07:14:01;;;;;;;2.90;0.60;;;11.00;98.90;;;;;;4230565;28;20051;-58
2024/04/01 07:16:04;;;;;;;0.22;0.22;;;11.00;98.80;;;;;;4230738;28;20054;-59
2024/04/01 07:18:05;;;;;;;0.20;0.20;;;11.10;99.00;;;;;;4230634;28;20044;-53
2024/04/01 07:20:07;;;;;;;0.00;0.00;;;11.00;98.90;;;;;;4230634;28;20425;-54
2024/04/01 07:22:10;;;;;;;0.03;0.00;;;11.00;98.90;;;;;;4230003;28;20524;-51
2024/04/01 07:24:14;;;;;;;1.08;0.20;;;11.00;98.70;;;;;;4230365;28;20102;-52
2024/04/01 07:26:15;;;;;;;0.67;0.10;;;11.10;98.90;;;;;;4213628;28;20523;-53
2024/04/01 07:28:17;;;;;;;0.00;0.00;;;11.10;98.90;;;;;;4230763;28;20439;-58
2024/04/01 07:30:18;;;;;;;0.10;0.10;;;11.10;99.00;;;;;;4230444;28;20070;-55
2024/04/01 07:32:20;;;;;;;1.00;0.90;;;11.20;98.90;;;;;;4213702;28;20055;-51
2024/04/01 07:34:21;;;;;;;0.17;0.17;;;11.20;98.90;;;;;;4230752;28;20517;-54
2024/04/01 07:36:22;;;;;;;1.05;0.20;;;11.30;98.80;;;;;;4230442;28;20078;-51
2024/04/01 07:38:25;;;;;;;0.47;0.15;;;11.30;98.60;;;;;;4231399;28;20047;-56
2024/04/01 07:40:27;;;;;;;0.30;0.30;;;11.40;98.40;;;;;;4230697;28;20606;-58
2024/04/01 07:42:28;;;;;;;0.15;0.15;;;11.60;98.80;;;;;;4231064;28;20062;-53
2024/04/01 07:44:30;;;;;;;0.40;0.40;;;11.50;98.20;;;;;;4230862;28;20054;-53
2024/04/01 07:46:31;;;;;;;0.20;0.10;;;11.50;98.60;;;;;;4230217;28;20047;-53
2024/04/01 07:48:33;;;;;;;0.75;0.10;;;11.50;98.30;;;;;;4230379;28;20478;-57
2024/04/01 07:50:34;;;;;;;0.30;0.20;;;11.60;98.50;;;;;;4230259;28;20533;-54
2024/04/01 07:52:36;;;;;;;0.55;0.43;;;11.70;98.30;;;;;;4230492;28;20039;-61
2024/04/01 07:54:39;;;;;;;0.10;0.10;;;11.80;98.70;;;;;;4230210;28;20043;-53
2024/04/01 07:56:41;;;;;;;0.32;0.10;;;11.90;98.00;;;;;;4214481;28;20070;-57
2024/04/01 07:58:42;;;;;;;0.40;0.40;;;11.80;98.40;;;;;;4231151;28;20043;-53
2024/04/01 08:00:43;;;;;;;0.80;0.20;;;11.90;98.20;;;;;;4230475;28;20062;-53
2024/04/01 08:02:45;;;;;;;0.10;0.10;;;11.90;98.20;;;;;;4230192;28;20109;-54
2024/04/01 08:04:46;;;;;;;0.20;0.20;;;12.00;98.00;;;;;;4229510;28;20047;-51
2024/04/01 08:06:48;;;;;;;0.35;0.10;;;12.00;97.90;;;;;;4230259;28;20424;-52
2024/04/01 08:08:49;;;;;;;0.28;0.10;;;12.10;98.20;;;;;;4230040;28;20493;-51
2024/04/01 08:10:52;;;;;;;0.73;0.25;;;12.00;98.30;;;;;;4230136;28;20047;-52
2024/04/01 08:12:53;;;;;;;0.75;0.20;;;12.10;97.90;;;;;;4230003;28;20054;-53
2024/04/01 08:14:55;;;;;;;0.35;0.13;;;11.90;97.90;;;;;;4230061;28;20058;-54
2024/04/01 08:16:56;;;;;;;0.85;0.65;;;11.90;98.10;;;;;;4229720;28;20047;-54
2024/04/01 08:18:57;;;;;;;0.10;0.10;;;11.90;98.30;;;;;;4229861;28;20051;-54
2024/04/01 08:21:00;;;;;;;0.05;0.00;;;11.80;98.10;;;;;;4229877;28;20055;-52
2024/04/01 08:23:01;;;;;;;0.82;0.30;;;11.90;98.30;;;;;;4229806;28;20039;-60
2024/04/01 08:25:04;;;;;;;0.10;0.08;;;11.90;97.90;;;;;;4230111;28;20094;-53
2024/04/01 08:27:09;;;;;;;0.30;0.15;;;12.00;98.10;;;;;;4230085;28;20047;-53
2024/04/01 08:29:10;;;;;;;4.55;0.22;;;12.00;98.20;;;;;;4229725;28;20047;-53
2024/04/01 08:31:12;;;;;;;0.28;0.20;;;12.10;98.10;;;;;;4229885;28;20039;-54
2024/04/01 08:33:13;;;;;;;0.10;0.10;;;12.00;97.50;;;;;;4229349;28;20058;-54
2024/04/01 08:35:15;;;;;;;0.17;0.10;;;11.90;98.00;;;;;;4229708;28;20070;-54
2024/04/01 08:37:16;;;;;;;1.85;0.30;;;12.10;98.20;;;;;;4229479;28;20047;-54
2024/04/01 08:39:18;;;;;;;2.35;0.82;;;12.10;97.90;;;;;;4212913;28;20452;-53
2024/04/01 08:41:28;;;;;;;0.20;0.20;;;12.10;97.80;;;;;;4229550;28;20058;-55
2024/04/01 08:43:37;;;;;;;0.20;0.20;;;12.00;97.90;;;;;;4229514;28;20059;-54
2024/04/01 08:45:39;;;;;;;0.20;0.20;;;12.10;98.10;;;;;;4229668;28;20440;-54
2024/04/01 08:47:44;;;;;;;0.95;0.20;;;12.20;97.90;;;;;;4228648;28;20455;-54
2024/04/01 08:49:56;;;;;;;0.68;0.10;;;12.20;97.90;;;;;;4229506;28;20459;-57
2024/04/01 08:52:03;;;;;;;0.85;0.10;;;12.30;97.90;;;;;;4229757;28;20051;-54
2024/04/01 08:54:07;;;;;;;1.23;0.20;;;12.40;98.00;;;;;;4229610;28;20052;-53
2024/04/01 08:56:10;;;;;;;0.10;0.10;;;12.40;97.70;;;;;;4229405;28;20054;-54
2024/04/01 08:58:11;;;;;;;0.20;0.13;;;12.30;97.50;;;;;;4229217;28;20058;-54
2024/04/01 09:00:14;;;;;;;0.10;0.10;;;12.40;97.40;;;;;;4229282;28;20062;-55
2024/04/01 09:02:15;;;;;;;0.15;0.15;;;12.40;97.60;;;;;;4229207;28;20136;-55
2024/04/01 09:04:17;;;;;;;15.73;1.45;;;12.60;97.50;;;;;;4229473;28;20058;-60
2024/04/01 09:06:19;;;;;;;0.10;0.00;;;12.80;97.40;;;;;;4229583;28;20489;-53
2024/04/01 09:08:21;;;;;;;0.13;0.10;;;12.80;97.50;;;;;;4229809;28;20523;-54
2024/04/01 09:10:22;;;;;;;0.03;0.03;;;12.80;97.40;;;;;;4229916;28;20510;-58
2024/04/01 09:12:25;;;;;;;0.50;0.30;;;12.70;97.10;;;;;;4229408;28;20039;-53
2024/04/01 09:14:26;;;;;;;0.17;0.10;;;12.80;97.60;;;;;;4229422;28;20520;-58
2024/04/01 09:16:29;;;;;;;0.50;0.10;;;12.70;97.40;;;;;;4229444;28;20054;-53
2024/04/01 09:18:36;;;;;;;0.20;0.20;;;12.80;97.40;;;;;;4229071;28;20058;-54
2024/04/01 09:20:38;;;;;;;0.45;0.10;;;12.60;96.90;;;;;;4229292;28;20047;-61
2024/04/01 09:22:39;;;;;;;2.78;0.20;;;12.80;97.40;;;;;;4229070;28;20048;-53
2024/04/01 09:24:41;;;;;;;25.60;1.38;;;12.80;97.30;;;;;;4229238;28;20054;-58
2024/04/01 09:26:43;;;;;;;0.45;0.20;;;12.70;97.50;;;;;;4229680;28;20048;-54
2024/04/01 09:28:45;;;;;;;0.30;0.10;;;12.90;97.40;;;;;;4229432;28;20052;-55
2024/04/01 09:30:46;;;;;;;0.70;0.55;;;13.00;97.70;;;;;;4229076;28;20058;-53
2024/04/01 09:32:49;;;;;;;0.95;0.40;;;13.20;97.20;;;;;;4228682;28;20047;-54
2024/04/01 09:34:56;;;;;;;0.20;0.10;;;13.40;97.30;;;;;;4228845;28;20125;-54
2024/04/01 09:36:58;;;;;;;0.70;0.22;;;13.50;96.80;;;;;;4228918;28;20061;-61
2024/04/01 09:38:59;;;;;;;0.63;0.55;;;13.50;96.50;;;;;;4212635;28;20044;-54
2024/04/01 09:41:03;;;;;;;1.15;0.60;;;13.60;96.80;;;;;;4229211;28;20046;-54
2024/04/01 09:43:06;;;;;;;1.05;0.60;;;13.60;96.90;;;;;;4212531;28;20052;-53
2024/04/01 09:45:08;;;;;;;0.38;0.20;;;13.50;96.40;;;;;;4212323;28;20054;-53
2024/04/01 09:47:10;;;;;;;0.68;0.20;;;13.50;96.50;;;;;;4228945;28;20047;-54
2024/04/01 09:49:14;;;;;;;2.60;0.80;;;13.30;97.00;;;;;;4229224;28;20050;-54
2024/04/01 09:51:18;;;;;;;;;;;13.40;97.00;;;;;;4229718;28;20093;-52
2024/04/01 09:53:19;;;;;;;2.72;0.50;;;13.40;96.80;;;;;;4229184;28;19942;-53
2024/04/01 09:55:24;;;;;;;0.75;0.50;;;13.40;96.80;;;;;;4229121;28;20047;-53
2024/04/01 09:57:49;;;;;;;0.05;0.05;;;13.50;96.90;;;;;;4212069;28;20050;-54
2024/04/01 10:00:13;;;;;;;1.58;0.20;;;13.50;96.60;;;;;;4231522;28;20061;-51
2024/04/01 10:02:51;;;;;;;4.38;1.55;;;13.50;96.40;;;;;;4231839;28;20043;-53
2024/04/01 10:05:19;;;;;;;1.05;0.20;;;13.40;96.50;;;;;;4148296;28;20479;-57
2024/04/01 10:07:51;;;;;;;0.32;0.17;;;13.40;96.40;;;;;;4148547;28;20052;-55
2024/04/01 10:10:08;;;;;;;0.88;0.85;;;13.30;96.80;;;;;;4181379;28;20055;-55
2024/04/01 10:12:38;;;;;;;1.75;0.15;;;13.10;97.30;;;;;;4148997;28;20450;-56
2024/04/01 10:15:06;;;;;;;0.10;0.10;;;13.10;97.20;;;;;;4155381;28;20053;-54
2024/04/01 10:17:34;;;;;;;1.45;0.32;;;13.00;97.80;;;;;;4164592;28;20551;-53
2024/04/01 10:20:00;;;;;;;0.75;0.45;;;13.10;97.60;;;;;;4164281;28;20045;-52
2024/04/01 10:22:32;;;;;;;2.42;0.13;;;13.20;97.80;;;;;;4149004;28;20499;-54
2024/04/01 10:25:08;;;;;;;0.63;0.35;;;13.10;97.50;;;;;;4164282;28;20380;-52
2024/04/01 10:27:44;;;;;;;0.40;0.13;;;13.00;98.10;;;;;;4159650;28;20049;-52
2024/04/01 10:30:28;;;;;;;0.20;0.20;;;12.90;98.70;;;;;;4163675;28;20045;-53
2024/04/01 10:33:06;;;;;;;1.17;0.20;;;12.90;99.20;;;;;;4115337;28;20071;-52
2024/04/01 10:35:43;;;;;;;0.32;0.10;;;12.90;98.90;;;;;;4115838;28;20087;-54
2024/04/01 10:38:13;;;;;;;1.17;0.20;;;12.90;98.90;;;;;;4116075;28;20055;-57
2024/04/01 10:40:33;;;;;;;0.10;0.10;;;13.10;99.00;;;;;;4052778;29;20052;-54
2024/04/01 10:43:03;;;;;;;0.80;0.63;;;13.20;98.70;;;;;;4087775;29;20047;-55
2024/04/01 10:45:41;;;;;;;1.35;0.35;;;13.30;98.40;;;;;;4099256;29;20057;-61